Time;durP1;ratioP1;P1;durP2;ratioP2;P2;SDS_P1;SDS_P2;PMS_P1;PMS_P2;Temp;Humidity;BMP_temperature;BMP_pressure;BME280_temperature;BME280_humidity;BME280_pressure;Samples;Min_cycle;Max_cycle;Signal;HPM_P1;HPM_P2
2020/04/28 00:05:41;;;;;;;2.08;1.88;;;;;;;19.11;39.12;99538.03;;;;-51
2020/04/28 00:08:41;;;;;;;2.79;1.88;;;;;;;19.10;39.08;99537.59;;;;-51
2020/04/28 00:11:41;;;;;;;2.18;1.89;;;;;;;19.11;39.12;99535.95;;;;-50
2020/04/28 00:14:41;;;;;;;2.21;1.99;;;;;;;19.10;39.14;99531.17;;;;-51
2020/04/28 00:17:41;;;;;;;2.27;2.07;;;;;;;19.10;39.13;99529.73;;;;-51
2020/04/28 00:20:41;;;;;;;2.14;1.94;;;;;;;19.09;39.12;99525.92;;;;-52
2020/04/28 00:23:41;;;;;;;1.98;1.87;;;;;;;19.08;39.08;99520.56;;;;-52
2020/04/28 00:26:41;;;;;;;2.13;1.93;;;;;;;19.09;39.07;99522.17;;;;-51
2020/04/28 00:29:41;;;;;;;2.21;1.86;;;;;;;19.08;39.09;99519.63;;;;-51
2020/04/28 00:32:41;;;;;;;2.37;1.91;;;;;;;19.07;39.12;99518.69;;;;-52
2020/04/28 00:35:41;;;;;;;2.16;1.96;;;;;;;19.07;39.12;99517.25;;;;-50
2020/04/28 00:38:41;;;;;;;2.10;1.90;;;;;;;19.07;39.12;99515.25;;;;-51
2020/04/28 00:41:41;;;;;;;2.00;1.85;;;;;;;19.06;39.07;99515.98;;;;-52
2020/04/28 00:44:42;;;;;;;2.09;1.89;;;;;;;19.06;39.11;99514.55;;;;-51
2020/04/28 00:47:48;;;;;;;2.10;1.91;;;;;;;19.06;39.07;99514.98;;;;-52
2020/04/28 00:50:42;;;;;;;2.18;1.97;;;;;;;19.07;39.08;99514.91;;;;-50
2020/04/28 00:53:41;;;;;;;2.13;1.90;;;;;;;19.05;39.09;99510.83;;;;-51
2020/04/28 00:56:41;;;;;;;2.41;1.81;;;;;;;19.06;39.10;99517.23;;;;-52
2020/04/28 00:59:41;;;;;;;2.02;1.90;;;;;;;19.05;39.12;99518.80;;;;-52
2020/04/28 01:02:41;;;;;;;2.14;1.90;;;;;;;19.04;39.13;99516.59;;;;-52
2020/04/28 01:05:41;;;;;;;2.21;2.01;;;;;;;19.04;39.08;99519.17;;;;-50
2020/04/28 01:08:41;;;;;;;2.06;1.91;;;;;;;19.04;39.09;99519.06;;;;-51
2020/04/28 01:11:41;;;;;;;1.93;1.81;;;;;;;19.04;39.08;99517.93;;;;-51
2020/04/28 01:14:41;;;;;;;2.18;1.98;;;;;;;19.04;39.09;99511.04;;;;-52
2020/04/28 01:17:41;;;;;;;2.23;2.01;;;;;;;19.03;39.10;99509.77;;;;-50
2020/04/28 01:20:41;;;;;;;2.21;2.01;;;;;;;19.03;39.10;99510.10;;;;-51
2020/04/28 01:23:41;;;;;;;1.86;1.74;;;;;;;19.03;39.10;99509.20;;;;-52
2020/04/28 01:26:41;;;;;;;2.15;1.92;;;;;;;19.02;39.12;99509.17;;;;-51
2020/04/28 01:29:41;;;;;;;2.05;1.85;;;;;;;19.03;39.08;99510.44;;;;-50
2020/04/28 01:32:41;;;;;;;2.13;1.93;;;;;;;19.02;39.08;99508.83;;;;-51
2020/04/28 01:35:41;;;;;;;2.01;1.81;;;;;;;19.02;39.09;99510.58;;;;-52
2020/04/28 01:38:41;;;;;;;2.06;1.86;;;;;;;19.01;39.07;99514.48;;;;-52
2020/04/28 01:41:41;;;;;;;2.43;2.10;;;;;;;19.02;39.10;99515.42;;;;-51
2020/04/28 01:44:41;;;;;;;2.04;1.93;;;;;;;19.01;39.11;99516.16;;;;-52
2020/04/28 01:47:41;;;;;;;2.14;2.00;;;;;;;19.02;39.08;99519.71;;;;-51
2020/04/28 01:50:41;;;;;;;2.17;1.97;;;;;;;19.02;39.09;99523.13;;;;-51
2020/04/28 01:53:41;;;;;;;1.98;1.85;;;;;;;19.01;39.08;99522.69;;;;-51
2020/04/28 01:56:41;;;;;;;2.25;2.05;;;;;;;19.00;39.05;99522.99;;;;-51
2020/04/28 01:59:41;;;;;;;2.17;1.99;;;;;;;19.00;39.07;99514.52;;;;-51
2020/04/28 02:02:41;;;;;;;2.20;2.00;;;;;;;19.00;39.09;99527.02;;;;-51
2020/04/28 02:05:41;;;;;;;2.35;2.07;;;;;;;19.00;39.11;99516.53;;;;-50
2020/04/28 02:08:41;;;;;;;2.08;1.88;;;;;;;18.99;39.05;99520.45;;;;-52
2020/04/28 02:11:41;;;;;;;2.30;2.10;;;;;;;18.99;39.08;99522.45;;;;-52
2020/04/28 02:14:41;;;;;;;1.95;1.85;;;;;;;18.99;39.04;99525.20;;;;-52
2020/04/28 02:17:41;;;;;;;2.20;2.00;;;;;;;18.99;39.08;99526.31;;;;-51
2020/04/28 02:20:41;;;;;;;1.91;1.81;;;;;;;18.99;39.08;99529.66;;;;-51
2020/04/28 02:23:41;;;;;;;2.03;1.87;;;;;;;18.98;39.06;99527.11;;;;-51
2020/04/28 02:26:41;;;;;;;2.01;1.85;;;;;;;18.99;39.05;99526.64;;;;-50
2020/04/28 02:29:42;;;;;;;2.00;1.90;;;;;;;18.98;39.03;99518.25;;;;-51
2020/04/28 02:32:50;;;;;;;1.93;1.83;;;;;;;18.99;39.01;99516.67;;;;-50
2020/04/28 02:35:50;;;;;;;1.95;1.80;;;;;;;18.97;39.06;99513.43;;;;-51
2020/04/28 02:38:47;;;;;;;2.20;2.00;;;;;;;18.97;39.01;99514.36;;;;-52
2020/04/28 02:41:41;;;;;;;2.20;2.00;;;;;;;18.97;39.03;99509.68;;;;-51
2020/04/28 02:44:41;;;;;;;2.15;1.96;;;;;;;18.97;39.01;99508.67;;;;-51
2020/04/28 02:47:41;;;;;;;2.17;1.97;;;;;;;18.97;39.03;99511.09;;;;-50
2020/04/28 02:50:41;;;;;;;1.91;1.81;;;;;;;18.96;39.01;99505.80;;;;-52
2020/04/28 02:53:41;;;;;;;2.08;1.89;;;;;;;18.96;39.01;99502.52;;;;-51
2020/04/28 02:56:41;;;;;;;2.04;1.93;;;;;;;18.96;39.02;99498.84;;;;-51
2020/04/28 02:59:41;;;;;;;2.00;1.89;;;;;;;18.95;39.04;99498.08;;;;-50
2020/04/28 03:02:41;;;;;;;2.10;1.90;;;;;;;18.94;39.01;99500.72;;;;-52
2020/04/28 03:05:41;;;;;;;2.05;1.95;;;;;;;18.94;39.03;99499.22;;;;-51
2020/04/28 03:08:41;;;;;;;1.94;1.81;;;;;;;18.95;39.02;99499.58;;;;-51
2020/04/28 03:11:41;;;;;;;2.17;1.97;;;;;;;18.94;39.04;99494.62;;;;-50
2020/04/28 03:14:41;;;;;;;2.03;1.88;;;;;;;18.94;39.05;99492.29;;;;-51
2020/04/28 03:17:41;;;;;;;2.15;1.95;;;;;;;18.93;39.03;99490.31;;;;-51
2020/04/28 03:20:41;;;;;;;1.97;1.84;;;;;;;18.93;39.07;99489.21;;;;-51
2020/04/28 03:23:41;;;;;;;2.18;1.98;;;;;;;18.93;39.03;99486.97;;;;-51
2020/04/28 03:26:41;;;;;;;2.19;1.99;;;;;;;18.94;39.05;99488.08;;;;-52
2020/04/28 03:29:41;;;;;;;2.08;1.98;;;;;;;18.93;39.04;99487.81;;;;-50
2020/04/28 03:32:41;;;;;;;1.95;1.85;;;;;;;18.92;39.05;99488.28;;;;-50
2020/04/28 03:35:41;;;;;;;1.90;1.80;;;;;;;18.92;39.00;99485.36;;;;-51
2020/04/28 03:38:41;;;;;;;1.81;1.71;;;;;;;18.92;39.01;99478.41;;;;-51
2020/04/28 03:41:41;;;;;;;2.17;2.02;;;;;;;18.94;38.97;99474.36;;;;-51
2020/04/28 03:44:41;;;;;;;1.95;1.84;;;;;;;18.94;38.96;99471.71;;;;-52
2020/04/28 03:47:41;;;;;;;1.89;1.79;;;;;;;18.95;38.97;99472.55;;;;-51
2020/04/28 03:50:41;;;;;;;2.10;1.90;;;;;;;18.97;39.00;99469.59;;;;-51
2020/04/28 03:53:41;;;;;;;2.02;1.90;;;;;;;18.98;38.96;99469.13;;;;-51
2020/04/28 03:56:41;;;;;;;1.99;1.89;;;;;;;19.01;38.92;99469.38;;;;-51
2020/04/28 03:59:41;;;;;;;2.05;1.89;;;;;;;19.03;38.91;99470.05;;;;-51
2020/04/28 04:02:41;;;;;;;2.06;1.94;;;;;;;19.06;38.95;99470.54;;;;-50
2020/04/28 04:05:41;;;;;;;2.17;1.97;;;;;;;19.08;39.03;99467.98;;;;-50
2020/04/28 04:08:41;;;;;;;2.23;1.99;;;;;;;19.11;39.03;99464.33;;;;-51
2020/04/28 04:11:41;;;;;;;2.27;1.95;;;;;;;19.15;39.07;99464.05;;;;-51
2020/04/28 04:14:41;;;;;;;2.16;1.96;;;;;;;19.17;39.08;99465.68;;;;-52
2020/04/28 04:17:41;;;;;;;2.09;1.89;;;;;;;19.20;39.15;99469.22;;;;-50
2020/04/28 04:20:41;;;;;;;2.13;1.95;;;;;;;19.23;39.21;99462.28;;;;-51
2020/04/28 04:23:41;;;;;;;2.15;1.95;;;;;;;19.25;39.18;99454.30;;;;-50
2020/04/28 04:26:41;;;;;;;2.10;1.90;;;;;;;19.27;39.13;99443.81;;;;-52
2020/04/28 04:29:41;;;;;;;2.21;2.01;;;;;;;19.29;39.22;99441.77;;;;-51
2020/04/28 04:32:41;;;;;;;2.09;1.90;;;;;;;19.31;39.16;99445.09;;;;-51
2020/04/28 04:35:41;;;;;;;2.19;1.99;;;;;;;19.33;39.18;99443.81;;;;-50
2020/04/28 04:38:41;;;;;;;2.10;1.90;;;;;;;19.34;39.13;99446.45;;;;-51
2020/04/28 04:41:41;;;;;;;2.00;1.90;;;;;;;19.36;39.09;99446.15;;;;-52
2020/04/28 04:44:41;;;;;;;2.18;1.99;;;;;;;19.37;39.12;99457.59;;;;-51
2020/04/28 04:47:41;;;;;;;2.00;1.90;;;;;;;19.38;39.09;99466.66;;;;-51
2020/04/28 04:50:41;;;;;;;2.29;2.09;;;;;;;19.40;39.09;99466.09;;;;-50
2020/04/28 04:53:41;;;;;;;1.90;1.77;;;;;;;19.41;39.06;99463.44;;;;-52
2020/04/28 04:56:41;;;;;;;2.03;1.92;;;;;;;19.42;39.06;99474.88;;;;-51
2020/04/28 04:59:41;;;;;;;2.10;1.90;;;;;;;19.42;39.04;99473.38;;;;-51
2020/04/28 05:02:43;;;;;;;2.35;2.09;;;;;;;19.42;39.07;99473.64;;;;-51
2020/04/28 05:05:42;;;;;;;2.20;2.00;;;;;;;19.43;39.04;99476.86;;;;-51
2020/04/28 05:08:41;;;;;;;2.12;1.93;;;;;;;19.44;39.01;99475.34;;;;-51
2020/04/28 05:11:41;;;;;;;2.01;1.91;;;;;;;19.44;39.08;99476.34;;;;-52
2020/04/28 05:14:41;;;;;;;1.99;1.89;;;;;;;19.45;39.03;99475.87;;;;-50
2020/04/28 05:17:41;;;;;;;2.04;1.92;;;;;;;19.45;39.02;99473.20;;;;-51
2020/04/28 05:20:41;;;;;;;2.05;1.93;;;;;;;19.45;39.01;99472.09;;;;-51
2020/04/28 05:23:41;;;;;;;2.05;1.95;;;;;;;19.45;39.02;99476.55;;;;-51
2020/04/28 05:26:41;;;;;;;1.91;1.79;;;;;;;19.45;38.97;99472.86;;;;-51
2020/04/28 05:29:41;;;;;;;2.14;1.85;;;;;;;19.44;38.96;99474.27;;;;-51
2020/04/28 05:35:16;;;;;;;1.97;1.85;;;;;;;19.46;39.03;99479.48;;;;-52
2020/04/28 05:41:32;;;;;;;2.10;1.91;;;;;;;19.45;38.93;99482.41;;;;-52
2020/04/28 05:44:32;;;;;;;2.17;1.97;;;;;;;19.45;38.93;99489.94;;;;-51
2020/04/28 05:47:32;;;;;;;2.17;1.98;;;;;;;19.45;38.95;99489.87;;;;-51
2020/04/28 05:50:32;;;;;;;2.15;1.95;;;;;;;19.45;38.94;99488.70;;;;-51
2020/04/28 05:53:32;;;;;;;1.93;1.83;;;;;;;19.45;38.93;99491.84;;;;-51
2020/04/28 05:59:32;;;;;;;2.19;1.99;;;;;;;19.46;38.95;99496.23;;;;-54
2020/04/28 06:02:36;;;;;;;2.19;1.99;;;;;;;19.46;38.91;99495.73;;;;-54
2020/04/28 06:05:32;;;;;;;2.20;2.00;;;;;;;19.46;38.92;99492.55;;;;-54
2020/04/28 06:08:32;;;;;;;2.00;1.89;;;;;;;19.45;38.93;99489.44;;;;-54
2020/04/28 06:11:32;;;;;;;1.85;1.75;;;;;;;19.44;38.89;99497.27;;;;-53
2020/04/28 06:14:32;;;;;;;2.19;1.99;;;;;;;19.44;38.92;99499.22;;;;-54
2020/04/28 06:17:32;;;;;;;1.98;1.76;;;;;;;19.45;38.92;99497.21;;;;-54
2020/04/28 06:20:32;;;;;;;2.07;1.90;;;;;;;19.44;38.89;99498.38;;;;-54
2020/04/28 06:23:32;;;;;;;2.14;1.97;;;;;;;19.44;38.91;99496.77;;;;-54
2020/04/28 06:26:32;;;;;;;2.13;1.97;;;;;;;19.44;38.89;99496.44;;;;-54
2020/04/28 06:29:32;;;;;;;2.11;1.98;;;;;;;19.43;38.89;99498.02;;;;-54
2020/04/28 06:32:32;;;;;;;2.11;1.91;;;;;;;19.44;38.88;99500.45;;;;-53
2020/04/28 06:35:32;;;;;;;2.00;1.90;;;;;;;19.44;38.94;99497.34;;;;-53
2020/04/28 06:38:32;;;;;;;2.00;1.90;;;;;;;19.43;38.91;99500.03;;;;-54
2020/04/28 06:41:44;;;;;;;2.50;1.97;;;;;;;19.43;38.92;99502.97;;;;-54
2020/04/28 06:44:32;;;;;;;2.10;1.91;;;;;;;19.42;38.88;99503.28;;;;-53
2020/04/28 09:13:10;;;;;;;7.61;2.17;;;;;;;19.71;39.89;99467.20;;;;-57
2020/04/28 09:16:12;;;;;;;3.07;1.82;;;;;;;19.71;39.92;99464.88;;;;-50
2020/04/28 09:19:30;;;;;;;5.83;1.99;;;;;;;19.72;40.03;99467.97;;;;-56
2020/04/28 09:23:48;;;;;;;4.54;2.10;;;;;;;19.73;39.97;99465.48;;;;-59
2020/04/28 09:42:15;;;;;;;4.47;1.97;;;;;;;19.67;39.67;99462.93;;;;-59
2020/04/28 09:50:46;;;;;;;3.10;1.85;;;;;;;19.66;39.55;99460.63;;;;-59
2020/04/28 09:53:19;;;;;;;4.11;1.83;;;;;;;19.65;39.61;99464.89;;;;-59
2020/04/28 09:57:12;;;;;;;2.45;1.90;;;;;;;19.65;39.52;99462.61;;;;-59
2020/04/28 10:03:19;;;;;;;3.04;1.97;;;;;;;19.64;39.54;99466.60;;;;-59
2020/04/28 10:06:21;;;;;;;2.73;1.75;;;;;;;19.62;39.48;99463.80;;;;-59
2020/04/28 10:09:28;;;;;;;2.39;1.73;;;;;;;19.62;39.49;99465.47;;;;-59
2020/04/28 10:12:10;;;;;;;3.49;1.73;;;;;;;19.62;39.44;99467.55;;;;-59
2020/04/28 10:20:10;;;;;;;3.36;1.97;;;;;;;19.60;39.41;99476.64;;;;-60
2020/04/28 10:23:24;;;;;;;1.91;1.71;;;;;;;19.60;39.39;99477.55;;;;-60
2020/04/28 10:26:14;;;;;;;1.94;1.75;;;;;;;19.59;39.39;99480.53;;;;-62
2020/04/28 10:32:13;;;;;;;2.51;1.80;;;;;;;19.59;39.36;99476.45;;;;-61
2020/04/28 10:35:20;;;;;;;3.60;1.83;;;;;;;19.58;39.33;99476.58;;;;-59
2020/04/28 10:38:33;;;;;;;2.13;1.89;;;;;;;19.57;39.37;99475.05;;;;-61
2020/04/28 10:41:23;;;;;;;2.47;1.83;;;;;;;19.57;39.27;99475.11;;;;-60
2020/04/28 10:44:16;;;;;;;2.06;1.70;;;;;;;19.56;39.36;99478.20;;;;-61
2020/04/28 10:47:13;;;;;;;2.13;1.91;;;;;;;19.56;39.26;99479.11;;;;-61
2020/04/28 10:50:45;;;;;;;3.09;1.69;;;;;;;19.56;39.28;99490.33;;;;-60
2020/04/28 11:01:13;;;;;;;2.05;1.79;;;;;;;19.54;39.27;99498.57;;;;-60
2020/04/28 11:04:21;;;;;;;2.89;1.60;;;;;;;19.54;39.29;99501.42;;;;-60
2020/04/28 11:07:20;;;;;;;1.80;1.70;;;;;;;19.53;39.29;99491.91;;;;-59
2020/04/28 11:10:13;;;;;;;2.18;1.72;;;;;;;19.53;39.29;99483.37;;;;-60
2020/04/28 11:13:33;;;;;;;2.17;1.68;;;;;;;19.53;39.30;99482.37;;;;-61
2020/04/28 11:16:29;;;;;;;1.87;1.67;;;;;;;19.53;39.26;99476.44;;;;-61
2020/04/28 11:19:23;;;;;;;2.74;1.78;;;;;;;19.52;39.25;99477.59;;;;-60
2020/04/28 11:22:12;;;;;;;2.74;1.66;;;;;;;19.52;39.26;99476.48;;;;-60
2020/04/28 11:25:55;;;;;;;1.91;1.56;;;;;;;19.52;39.27;99478.09;;;;-61
2020/04/28 11:29:14;;;;;;;1.77;1.67;;;;;;;19.51;39.24;99478.97;;;;-61
2020/04/28 11:37:10;;;;;;;4.38;1.91;;;;;;;19.53;39.69;99476.50;;;;-52
2020/04/28 11:40:05;;;;;;;2.78;1.93;;;;;;;19.56;39.80;99465.97;;;;-53
2020/04/28 11:43:05;;;;;;;3.85;1.80;;;;;;;19.56;40.02;99466.87;;;;-50
2020/04/28 11:46:05;;;;;;;1.95;1.75;;;;;;;19.59;40.08;99466.97;;;;-47
2020/04/28 11:49:05;;;;;;;3.91;1.70;;;;;;;19.61;40.06;99456.88;;;;-56
2020/04/28 11:52:05;;;;;;;2.97;1.84;;;;;;;19.61;40.25;99460.48;;;;-59
2020/04/28 11:55:05;;;;;;;1.88;1.71;;;;;;;19.61;40.30;99452.34;;;;-61
2020/04/28 11:58:05;;;;;;;2.23;1.84;;;;;;;19.62;40.36;99451.81;;;;-54
2020/04/28 12:01:05;;;;;;;3.91;1.78;;;;;;;19.62;40.36;99444.20;;;;-51
2020/04/28 12:04:05;;;;;;;2.90;1.81;;;;;;;19.64;40.33;99441.14;;;;-56
2020/04/28 12:07:05;;;;;;;3.27;1.72;;;;;;;19.64;40.07;99436.69;;;;-57
2020/04/28 12:10:06;;;;;;;5.43;1.81;;;;;;;19.62;40.13;99440.58;;;;-55
2020/04/28 12:13:05;;;;;;;2.22;1.60;;;;;;;19.62;40.06;99425.52;;;;-56
2020/04/28 12:16:05;;;;;;;2.90;1.87;;;;;;;19.62;40.01;99437.14;;;;-57
2020/04/28 12:19:05;;;;;;;5.39;1.78;;;;;;;19.61;39.96;99436.30;;;;-57
2020/04/28 12:22:05;;;;;;;2.26;1.84;;;;;;;19.60;39.95;99433.39;;;;-57
2020/04/28 12:25:05;;;;;;;2.55;1.73;;;;;;;19.60;39.86;99437.61;;;;-57
2020/04/28 12:28:05;;;;;;;2.83;1.74;;;;;;;19.59;39.81;99437.76;;;;-56
2020/04/28 12:31:05;;;;;;;3.28;1.70;;;;;;;19.59;39.78;99434.30;;;;-56
2020/04/28 12:34:05;;;;;;;2.37;1.69;;;;;;;19.58;39.74;99438.47;;;;-56
2020/04/28 12:37:05;;;;;;;2.61;1.80;;;;;;;19.58;39.73;99439.41;;;;-56
2020/04/28 12:40:05;;;;;;;1.71;1.61;;;;;;;19.57;39.70;99446.41;;;;-57
2020/04/28 12:43:05;;;;;;;2.36;1.81;;;;;;;19.56;39.67;99449.56;;;;-55
2020/04/28 12:46:05;;;;;;;2.83;1.80;;;;;;;19.56;39.69;99454.48;;;;-57
2020/04/28 12:49:05;;;;;;;1.69;1.58;;;;;;;19.55;39.68;99459.41;;;;-57
2020/04/28 12:52:05;;;;;;;1.73;1.63;;;;;;;19.56;39.62;99466.38;;;;-56
2020/04/28 12:55:05;;;;;;;6.50;1.85;;;;;;;19.56;39.64;99465.14;;;;-54
2020/04/28 12:58:05;;;;;;;2.47;1.73;;;;;;;19.57;39.86;99461.55;;;;-53
2020/04/28 13:01:05;;;;;;;2.36;1.60;;;;;;;19.58;39.97;99459.83;;;;-52
2020/04/28 13:04:05;;;;;;;3.58;1.70;;;;;;;19.58;40.18;99453.80;;;;-52
2020/04/28 13:07:05;;;;;;;1.97;1.63;;;;;;;19.59;40.21;99453.16;;;;-56
2020/04/28 13:10:05;;;;;;;3.35;1.65;;;;;;;19.61;40.30;99449.50;;;;-50
2020/04/28 13:13:05;;;;;;;3.06;2.02;;;;;;;19.61;40.12;99448.53;;;;-53
2020/04/28 13:21:12;;;;;;;1.92;1.73;;;;;;;19.63;40.14;99439.11;;;;-58
2020/04/28 13:24:20;;;;;;;7.26;1.70;;;;;;;19.65;40.23;99441.34;;;;-52
2020/04/28 13:39:11;;;;;;;2.57;1.65;;;;;;;19.66;40.05;99426.70;;;;-61
2020/04/28 13:42:16;;;;;;;2.82;1.64;;;;;;;19.66;39.98;99425.28;;;;-61
2020/04/28 14:03:22;;;;;;;2.20;1.75;;;;;;;19.60;39.93;99441.13;;;;-60
2020/04/28 14:06:13;;;;;;;3.09;1.68;;;;;;;19.59;39.85;99436.75;;;;-61
2020/04/28 14:09:18;;;;;;;2.55;1.73;;;;;;;19.59;39.82;99443.12;;;;-60
2020/04/28 14:12:11;;;;;;;1.64;1.53;;;;;;;19.58;39.90;99436.22;;;;-61
2020/04/28 14:15:23;;;;;;;3.79;1.62;;;;;;;19.57;39.87;99438.94;;;;-61
2020/04/28 14:18:20;;;;;;;3.05;1.61;;;;;;;19.57;39.85;99438.70;;;;-61
2020/04/28 14:22:31;;;;;;;2.19;1.75;;;;;;;19.56;39.85;99436.91;;;;-61
2020/04/28 14:25:22;;;;;;;2.31;1.58;;;;;;;19.56;39.82;99436.16;;;;-61
2020/04/28 14:28:32;;;;;;;1.58;1.48;;;;;;;19.56;39.77;99439.75;;;;-60
2020/04/28 14:31:26;;;;;;;1.70;1.57;;;;;;;19.55;39.76;99438.22;;;;-60
2020/04/28 14:34:12;;;;;;;4.08;1.61;;;;;;;19.55;39.77;99436.14;;;;-61
2020/04/28 14:48:35;;;;;;;7.89;1.60;;;;;;;19.55;39.93;99430.52;;;;-46
2020/04/28 14:51:28;;;;;;;6.71;1.82;;;;;;;19.57;40.20;99440.05;;;;-58
2020/04/28 14:54:22;;;;;;;4.56;1.70;;;;;;;19.57;40.05;99428.56;;;;-58
2020/04/28 15:05:05;;;;;;;5.31;1.79;;;;;;;19.55;39.94;99438.22;;;;-58
2020/04/28 15:08:05;;;;;;;3.06;1.44;;;;;;;19.55;40.02;99437.88;;;;-58
2020/04/28 15:11:05;;;;;;;6.16;1.68;;;;;;;19.55;40.01;99435.88;;;;-59
2020/04/28 15:14:05;;;;;;;3.31;1.50;;;;;;;19.54;40.01;99447.90;;;;-58
2020/04/28 15:17:05;;;;;;;5.34;1.60;;;;;;;19.54;39.93;99452.09;;;;-59
2020/04/28 15:20:05;;;;;;;2.98;1.73;;;;;;;19.53;39.89;99450.88;;;;-59
2020/04/28 15:23:05;;;;;;;3.14;1.54;;;;;;;19.53;39.93;99448.81;;;;-59
2020/04/28 15:26:05;;;;;;;1.81;1.52;;;;;;;19.53;39.87;99453.50;;;;-59
2020/04/28 15:29:05;;;;;;;1.60;1.49;;;;;;;19.52;39.87;99457.48;;;;-59
2020/04/28 15:32:05;;;;;;;2.03;1.61;;;;;;;19.52;39.86;99459.91;;;;-59
2020/04/28 15:35:05;;;;;;;3.51;1.60;;;;;;;19.53;40.09;99460.43;;;;-50
2020/04/28 15:38:05;;;;;;;1.73;1.42;;;;;;;19.53;40.14;99461.37;;;;-50
2020/04/28 15:41:05;;;;;;;2.29;1.47;;;;;;;19.54;40.24;99456.70;;;;-50
2020/04/28 15:44:05;;;;;;;2.02;1.45;;;;;;;19.55;40.29;99453.22;;;;-57
2020/04/28 15:47:05;;;;;;;2.71;1.56;;;;;;;19.56;40.31;99452.41;;;;-56
2020/04/28 15:50:05;;;;;;;2.17;1.53;;;;;;;19.57;40.36;99457.53;;;;-56
2020/04/28 15:53:05;;;;;;;2.69;1.60;;;;;;;19.60;40.41;99452.09;;;;-58
2020/04/28 15:56:05;;;;;;;4.96;1.53;;;;;;;19.61;40.32;99453.63;;;;-54
2020/04/28 15:59:05;;;;;;;5.33;1.57;;;;;;;19.62;40.45;99453.31;;;;-54
2020/04/28 16:02:05;;;;;;;3.33;1.61;;;;;;;19.62;40.53;99447.95;;;;-55
2020/04/28 16:05:05;;;;;;;4.19;1.53;;;;;;;19.62;40.53;99451.03;;;;-59
2020/04/28 16:08:05;;;;;;;1.67;1.47;;;;;;;19.62;40.53;99450.47;;;;-54
2020/04/28 16:11:05;;;;;;;2.21;1.40;;;;;;;19.63;40.58;99447.66;;;;-56
2020/04/28 16:14:05;;;;;;;1.74;1.34;;;;;;;19.63;40.57;99447.41;;;;-52
2020/04/28 16:17:05;;;;;;;2.58;1.54;;;;;;;19.65;40.57;99443.92;;;;-51
2020/04/28 16:20:05;;;;;;;2.63;1.44;;;;;;;19.64;40.52;99440.98;;;;-52
2020/04/28 16:23:05;;;;;;;6.54;1.71;;;;;;;19.66;40.85;99432.22;;;;-51
2020/04/28 16:26:05;;;;;;;6.14;1.54;;;;;;;19.68;40.84;99438.04;;;;-50
2020/04/28 16:29:05;;;;;;;8.75;2.09;;;;;;;19.70;40.83;99435.52;;;;-51
2020/04/28 16:32:05;;;;;;;4.63;1.49;;;;;;;19.70;40.89;99432.20;;;;-47
2020/04/28 16:35:05;;;;;;;5.64;1.59;;;;;;;19.72;40.92;99423.23;;;;-60
2020/04/28 16:38:05;;;;;;;2.53;1.48;;;;;;;19.73;40.95;99424.27;;;;-58
2020/04/28 16:41:08;;;;;;;2.57;1.53;;;;;;;19.72;40.99;99424.08;;;;-59
2020/04/28 16:44:05;;;;;;;2.35;1.53;;;;;;;19.72;40.89;99418.89;;;;-52
2020/04/28 16:47:04;;;;;;;4.63;1.62;;;;;;;19.71;40.85;99419.16;;;;-56
2020/04/28 16:55:18;;;;;;;8.02;1.52;;;;;;;19.73;40.93;99431.07;;;;-51
2020/04/28 16:58:17;;;;;;;5.39;1.60;;;;;;;19.73;40.92;99435.77;;;;-50
2020/04/28 17:04:34;;;;;;;3.94;1.61;;;;;;;19.73;40.94;99434.99;;;;-55
2020/04/28 17:07:28;;;;;;;5.07;1.43;;;;;;;19.72;40.90;99422.20;;;;-55
2020/04/28 17:13:17;;;;;;;5.33;1.75;;;;;;;19.74;40.89;99437.39;;;;-53
2020/04/28 17:16:24;;;;;;;2.43;1.53;;;;;;;19.75;40.93;99438.86;;;;-58
2020/04/28 17:34:13;;;;;;;3.63;1.62;;;;;;;19.71;40.55;99453.03;;;;-57
2020/04/28 17:40:16;;;;;;;1.75;1.50;;;;;;;19.69;40.48;99455.25;;;;-57
2020/04/28 17:43:21;;;;;;;2.75;1.59;;;;;;;19.69;40.40;99453.48;;;;-57
2020/04/28 17:46:49;;;;;;;3.69;1.44;;;;;;;19.68;40.41;99459.31;;;;-57
2020/04/28 17:49:21;;;;;;;1.49;1.39;;;;;;;19.67;40.36;99460.05;;;;-57
2020/04/28 17:52:46;;;;;;;2.29;1.35;;;;;;;19.67;40.33;99465.08;;;;-57
2020/04/28 17:55:32;;;;;;;1.87;1.50;;;;;;;19.66;40.34;99461.13;;;;-57
2020/04/28 18:10:17;;;;;;;2.00;1.36;;;;;;;19.62;40.23;99468.66;;;;-57
2020/04/28 18:13:20;;;;;;;2.27;1.41;;;;;;;19.62;40.19;99468.72;;;;-57
2020/04/28 18:16:29;;;;;;;3.08;1.25;;;;;;;19.62;40.16;99474.48;;;;-57
2020/04/28 18:19:20;;;;;;;2.92;1.53;;;;;;;19.61;40.20;99478.17;;;;-57
2020/04/28 18:22:14;;;;;;;1.30;1.20;;;;;;;19.60;40.18;99479.62;;;;-57
2020/04/28 18:25:23;;;;;;;2.43;1.40;;;;;;;19.60;40.14;99479.62;;;;-58
2020/04/28 18:28:20;;;;;;;1.47;1.37;;;;;;;19.59;40.13;99478.78;;;;-57
2020/04/28 18:34:19;;;;;;;1.51;1.21;;;;;;;19.58;40.12;99483.52;;;;-57
2020/04/28 18:37:20;;;;;;;2.71;1.47;;;;;;;19.59;40.10;99488.73;;;;-57
2020/04/28 18:45:16;;;;;;;2.70;1.43;;;;;;;19.57;40.09;99495.81;;;;-57
2020/04/28 18:48:21;;;;;;;1.61;1.31;;;;;;;19.57;40.07;99498.66;;;;-57
2020/04/28 18:54:15;;;;;;;1.31;1.20;;;;;;;19.56;40.08;99505.23;;;;-57
2020/04/28 19:03:12;;;;;;;1.38;1.28;;;;;;;19.55;40.08;99518.09;;;;-57
2020/04/28 19:06:05;;;;;;;1.40;1.30;;;;;;;19.54;40.07;99519.00;;;;-57
2020/04/28 19:09:05;;;;;;;1.40;1.30;;;;;;;19.54;40.07;99520.75;;;;-57
2020/04/28 19:12:05;;;;;;;1.99;1.40;;;;;;;19.54;40.04;99522.92;;;;-57
2020/04/28 19:15:05;;;;;;;1.79;1.35;;;;;;;19.54;40.06;99525.88;;;;-57
2020/04/28 19:18:05;;;;;;;1.69;1.29;;;;;;;19.53;40.03;99528.34;;;;-57
2020/04/28 19:21:05;;;;;;;1.63;1.30;;;;;;;19.52;40.03;99534.02;;;;-57
2020/04/28 19:24:05;;;;;;;1.73;1.46;;;;;;;19.52;40.05;99534.86;;;;-57
2020/04/28 19:27:05;;;;;;;1.57;1.33;;;;;;;19.51;40.03;99533.82;;;;-57
2020/04/28 19:30:05;;;;;;;2.55;1.45;;;;;;;19.54;40.14;99539.27;;;;-52
2020/04/28 19:33:05;;;;;;;1.31;1.21;;;;;;;19.55;40.25;99536.69;;;;-56
2020/04/28 19:36:05;;;;;;;1.35;1.25;;;;;;;19.56;40.37;99542.41;;;;-55
2020/04/28 19:39:05;;;;;;;1.57;1.31;;;;;;;19.58;40.46;99541.30;;;;-53
2020/04/28 19:42:05;;;;;;;1.45;1.30;;;;;;;19.58;40.52;99544.07;;;;-51
2020/04/28 19:45:05;;;;;;;2.06;1.54;;;;;;;19.61;40.56;99545.06;;;;-54
2020/04/28 19:48:05;;;;;;;1.76;1.40;;;;;;;19.61;40.55;99548.66;;;;-53
2020/04/28 19:51:05;;;;;;;2.18;1.30;;;;;;;19.62;40.63;99551.30;;;;-55
2020/04/28 19:54:05;;;;;;;1.39;1.29;;;;;;;19.62;40.63;99546.44;;;;-54
2020/04/28 19:57:05;;;;;;;2.10;1.44;;;;;;;19.63;40.67;99546.23;;;;-51
2020/04/28 20:00:05;;;;;;;4.09;1.42;;;;;;;19.63;40.63;99544.13;;;;-53
2020/04/28 20:03:05;;;;;;;3.70;1.50;;;;;;;19.64;40.80;99546.56;;;;-51
2020/04/28 20:06:05;;;;;;;2.97;1.24;;;;;;;19.65;40.82;99549.80;;;;-54
2020/04/28 20:09:05;;;;;;;2.11;1.43;;;;;;;19.66;40.79;99545.55;;;;-56
2020/04/28 20:12:05;;;;;;;1.96;1.37;;;;;;;19.66;40.84;99547.80;;;;-54
2020/04/28 20:15:05;;;;;;;2.22;1.49;;;;;;;19.67;40.88;99548.42;;;;-55
2020/04/28 20:18:05;;;;;;;3.42;1.48;;;;;;;19.68;40.89;99544.09;;;;-51
2020/04/28 20:24:05;;;;;;;1.58;1.43;;;;;;;19.68;40.91;99547.61;;;;-51
2020/04/28 20:27:05;;;;;;;2.71;1.40;;;;;;;19.69;40.80;99548.72;;;;-53
2020/04/28 20:30:05;;;;;;;1.61;1.48;;;;;;;19.68;40.60;99552.70;;;;-56
2020/04/28 20:33:05;;;;;;;1.49;1.39;;;;;;;19.67;40.61;99553.88;;;;-56
2020/04/28 20:36:05;;;;;;;4.05;1.51;;;;;;;19.66;40.56;99547.89;;;;-55
2020/04/28 20:39:05;;;;;;;3.35;1.40;;;;;;;19.65;40.63;99546.02;;;;-55
2020/04/28 20:42:05;;;;;;;1.91;1.40;;;;;;;19.65;40.64;99544.52;;;;-55
2020/04/28 20:45:05;;;;;;;2.40;1.43;;;;;;;19.63;40.59;99540.37;;;;-56
2020/04/28 20:48:05;;;;;;;2.19;1.52;;;;;;;19.62;40.59;99537.73;;;;-55
2020/04/28 20:51:05;;;;;;;3.91;1.49;;;;;;;19.61;40.52;99542.63;;;;-55
2020/04/28 20:54:05;;;;;;;1.58;1.48;;;;;;;19.60;40.52;99540.92;;;;-55
2020/04/28 20:57:05;;;;;;;1.54;1.30;;;;;;;19.60;40.47;99542.36;;;;-55
2020/04/28 21:00:05;;;;;;;2.40;1.38;;;;;;;19.59;40.45;99543.67;;;;-56
2020/04/28 21:03:09;;;;;;;1.55;1.45;;;;;;;19.58;40.42;99543.97;;;;-55
2020/04/28 21:13:43;;;;;;;2.17;1.48;;;;;;;19.55;40.38;99542.88;;;;-55
2020/04/28 21:20:13;;;;;;;1.61;1.38;;;;;;;19.53;40.32;99543.99;;;;-55
2020/04/28 21:28:26;;;;;;;1.54;1.40;;;;;;;19.52;40.30;99547.98;;;;-56
2020/04/28 21:31:58;;;;;;;1.50;1.31;;;;;;;19.51;40.33;99546.81;;;;-56
2020/04/28 21:39:13;;;;;;;1.77;1.43;;;;;;;19.50;40.32;99540.55;;;;-56
2020/04/28 21:42:14;;;;;;;2.35;1.40;;;;;;;19.49;40.32;99542.20;;;;-56
2020/04/28 21:45:12;;;;;;;1.68;1.47;;;;;;;19.47;40.30;99539.47;;;;-56
2020/04/28 21:48:10;;;;;;;1.49;1.39;;;;;;;19.47;40.29;99535.45;;;;-56
2020/04/28 21:51:14;;;;;;;1.57;1.45;;;;;;;19.47;40.30;99538.80;;;;-56
2020/04/28 21:54:17;;;;;;;1.61;1.40;;;;;;;19.46;40.27;99536.02;;;;-56
2020/04/28 21:57:17;;;;;;;2.04;1.40;;;;;;;19.45;40.25;99539.00;;;;-56
2020/04/28 22:00:16;;;;;;;1.59;1.49;;;;;;;19.45;40.29;99543.19;;;;-55
2020/04/28 22:03:07;;;;;;;2.67;1.33;;;;;;;19.44;40.25;99543.26;;;;-55
2020/04/28 22:06:05;;;;;;;1.51;1.41;;;;;;;19.44;40.25;99545.66;;;;-55
2020/04/28 22:09:05;;;;;;;1.60;1.50;;;;;;;19.43;40.25;99546.31;;;;-56
2020/04/28 22:12:05;;;;;;;1.94;1.55;;;;;;;19.43;40.24;99546.24;;;;-55
2020/04/28 22:15:05;;;;;;;1.59;1.46;;;;;;;19.41;40.27;99544.74;;;;-56
2020/04/28 22:18:05;;;;;;;1.45;1.35;;;;;;;19.41;40.26;99548.09;;;;-55
2020/04/28 22:21:05;;;;;;;1.33;1.23;;;;;;;19.40;40.26;99550.60;;;;-56
2020/04/28 22:24:05;;;;;;;1.40;1.30;;;;;;;19.40;40.28;99552.41;;;;-56
2020/04/28 22:27:05;;;;;;;1.41;1.31;;;;;;;19.39;40.27;99559.17;;;;-55
2020/04/28 22:30:05;;;;;;;1.31;1.21;;;;;;;19.39;40.25;99559.02;;;;-55
2020/04/28 22:33:05;;;;;;;1.71;1.51;;;;;;;19.38;40.27;99562.06;;;;-55
2020/04/28 22:36:05;;;;;;;1.59;1.32;;;;;;;19.38;40.21;99560.28;;;;-56
2020/04/28 22:39:05;;;;;;;2.11;1.30;;;;;;;19.38;40.27;99561.30;;;;-56